Maghera, United Kingdom
Current Conditions -  °F | °C
As of 7:20 PM on Tuesday 21 Oct 2014 (Local Time) from EGAA Reporting Station
Scattered Clouds Scattered Clouds  
Wind Chill:   Ceiling: Unl
Heat Index:   Visibility: 6mi
Dew Point:   Wind: 22mph
Humidity: 71%   Direction: 290°WNW
Pressure: 30.03"   Gusts: NA
Location:  54.84°N, 6.67°W
Report Text: EGAA 211820Z 29019KT 9999 SCT040 08/03 Q1017
Loading
Personal Weather Stations






























Interactive Weather Map
Tropical Storm Tracking
New forecast layout! Learn more

10-Day Weather Forecast

Advertisements
Track Severe Weather on mobile